Time;durP1;ratioP1;P1;durP2;ratioP2;P2;SDS_P1;SDS_P2;PMS_P1;PMS_P2;Temp;Humidity;BMP_temperature;BMP_pressure;BME280_temperature;BME280_humidity;BME280_pressure;Samples;Min_cycle;Max_cycle;Signal;HPM_P1;HPM_P2
2022/03/09 00:00:15;;;;;;;12.18;6.47;;;7.30;96.70;;;;;;5066327;28;20039;-48
2022/03/09 00:02:43;;;;;;;15.18;7.45;;;7.40;97.10;;;;;;5068418;28;20402;-47
2022/03/09 00:05:11;;;;;;;13.95;8.02;;;7.30;96.70;;;;;;5067608;28;20046;-47
2022/03/09 00:07:38;;;;;;;14.68;7.20;;;7.30;96.70;;;;;;5060248;28;20057;-47
2022/03/09 00:10:07;;;;;;;12.18;6.35;;;7.30;96.30;;;;;;5082273;28;20086;-50
2022/03/09 00:12:35;;;;;;;13.27;7.60;;;7.30;95.60;;;;;;5083024;28;20375;-49
2022/03/09 00:15:03;;;;;;;12.00;7.22;;;7.30;94.50;;;;;;5045323;28;20107;-50
2022/03/09 00:17:30;;;;;;;11.93;7.43;;;7.30;94.10;;;;;;5060315;28;20071;-47
2022/03/09 00:19:58;;;;;;;11.32;7.07;;;7.30;93.70;;;;;;5077366;28;20032;-48
2022/03/09 00:22:27;;;;;;;13.88;7.43;;;7.30;93.50;;;;;;5061234;28;20047;-47
2022/03/09 00:24:55;;;;;;;12.43;6.68;;;7.30;93.50;;;;;;5061941;28;20414;-48
2022/03/09 00:27:22;;;;;;;11.75;6.43;;;7.30;93.60;;;;;;5074313;28;20036;-47
2022/03/09 00:29:50;;;;;;;13.15;6.07;;;7.30;93.40;;;;;;5054219;28;20047;-46
2022/03/09 00:32:17;;;;;;;11.05;6.88;;;7.30;93.60;;;;;;5042833;28;20114;-47
2022/03/09 00:34:45;;;;;;;11.50;6.40;;;7.20;93.50;;;;;;5076773;28;20562;-49
2022/03/09 00:37:12;;;;;;;12.85;6.05;;;7.30;93.80;;;;;;5053424;28;20048;-48
2022/03/09 00:39:40;;;;;;;10.85;6.28;;;7.30;93.70;;;;;;5082694;28;20139;-47
2022/03/09 00:42:08;;;;;;;10.48;5.60;;;7.30;93.00;;;;;;5069358;28;20040;-47
2022/03/09 00:44:35;;;;;;;9.77;5.90;;;7.20;92.60;;;;;;5068573;28;20067;-51
2022/03/09 00:47:03;;;;;;;15.13;6.93;;;7.20;92.40;;;;;;5081591;28;20115;-49
2022/03/09 00:49:31;;;;;;;9.60;5.78;;;7.20;92.40;;;;;;5084004;28;20131;-47
2022/03/09 00:51:58;;;;;;;11.02;6.85;;;7.20;92.50;;;;;;5077081;28;20044;-46
2022/03/09 00:54:26;;;;;;;10.40;5.82;;;7.30;92.80;;;;;;5069763;28;20545;-47
2022/03/09 00:56:53;;;;;;;10.25;5.68;;;7.30;93.00;;;;;;5069010;28;20041;-49
2022/03/09 00:59:20;;;;;;;13.35;6.75;;;7.30;93.10;;;;;;5069614;28;20076;-48
2022/03/09 01:01:48;;;;;;;9.70;6.07;;;7.30;93.20;;;;;;5061573;28;20479;-48
2022/03/09 01:04:16;;;;;;;10.27;7.43;;;7.40;93.50;;;;;;5083963;28;20506;-46
2022/03/09 01:06:44;;;;;;;12.68;6.88;;;7.30;93.60;;;;;;5086270;28;20846;-49
2022/03/09 01:09:11;;;;;;;11.80;6.30;;;7.30;93.80;;;;;;5023194;28;20044;-49
2022/03/09 01:11:41;;;;;;;10.45;7.00;;;7.30;94.00;;;;;;5069754;28;20040;-48
2022/03/09 01:14:09;;;;;;;11.73;6.93;;;7.30;94.00;;;;;;5071414;28;20051;-51
2022/03/09 01:16:36;;;;;;;9.95;6.38;;;7.30;94.00;;;;;;5059905;28;20048;-52
2022/03/09 01:19:04;;;;;;;10.32;6.78;;;7.30;94.10;;;;;;5066023;28;20088;-54
2022/03/09 01:21:32;;;;;;;14.68;7.55;;;7.40;94.30;;;;;;5084296;28;20467;-49
2022/03/09 01:24:01;;;;;;;13.57;8.10;;;7.30;94.40;;;;;;5069464;28;20050;-49
2022/03/09 01:26:29;;;;;;;14.25;6.32;;;7.30;94.50;;;;;;5068772;28;20053;-53
2022/03/09 01:28:57;;;;;;;15.77;6.85;;;7.40;94.60;;;;;;5083103;28;20066;-53
2022/03/09 01:31:31;;;;;;;11.18;6.03;;;7.40;94.30;;;;;;5062075;28;20450;-51
2022/03/09 01:33:59;;;;;;;10.10;5.85;;;7.40;94.00;;;;;;5063021;28;20048;-48
2022/03/09 01:36:28;;;;;;;12.80;6.93;;;7.40;93.80;;;;;;5079860;28;20056;-52
2022/03/09 01:38:56;;;;;;;12.20;5.45;;;7.30;93.90;;;;;;5075912;28;20043;-50
2022/03/09 01:41:24;;;;;;;12.68;6.50;;;7.30;94.10;;;;;;5052484;28;20072;-51
2022/03/09 01:44:07;;;;;;;11.82;6.30;;;7.40;94.20;;;;;;5084585;28;20033;-52
2022/03/09 01:46:36;;;;;;;9.27;6.30;;;7.40;94.50;;;;;;5080156;28;20048;-50
2022/03/09 01:49:10;;;;;;;10.15;6.22;;;7.30;94.50;;;;;;5071889;28;20037;-53
2022/03/09 01:51:41;;;;;;;10.52;7.00;;;7.30;94.70;;;;;;5074480;28;20048;-50
2022/03/09 01:54:09;;;;;;;10.43;7.28;;;7.30;94.80;;;;;;5078431;28;20043;-51
2022/03/09 01:56:38;;;;;;;10.45;6.28;;;7.30;94.60;;;;;;5069566;28;20114;-52
2022/03/09 01:59:09;;;;;;;10.75;6.28;;;7.30;94.60;;;;;;5076713;28;20482;-46
2022/03/09 02:01:37;;;;;;;11.88;6.75;;;7.40;94.90;;;;;;5060349;28;20651;-47
2022/03/09 02:04:05;;;;;;;10.13;5.78;;;7.20;94.60;;;;;;5051050;28;20091;-49
2022/03/09 02:06:36;;;;;;;17.20;6.80;;;7.20;94.60;;;;;;5079280;28;20521;-51
2022/03/09 02:11:53;;;;;;;11.68;6.15;;;7.20;94.10;;;;;;5065499;28;20057;-49
2022/03/09 02:14:29;;;;;;;15.38;7.00;;;7.20;94.00;;;;;;5063372;28;20048;-48
2022/03/09 02:16:58;;;;;;;12.55;6.38;;;7.20;94.30;;;;;;5078725;28;20123;-49
2022/03/09 02:19:26;;;;;;;10.45;6.47;;;7.20;94.20;;;;;;5059230;28;20074;-52
2022/03/09 02:22:07;;;;;;;9.77;6.53;;;7.20;94.10;;;;;;5045483;28;20058;-49
2022/03/09 02:24:37;;;;;;;15.90;6.03;;;7.20;94.10;;;;;;5058192;28;20080;-49
2022/03/09 02:27:05;;;;;;;11.95;5.55;;;7.10;94.10;;;;;;5056234;28;20064;-47
2022/03/09 02:29:33;;;;;;;11.25;5.95;;;7.10;94.10;;;;;;5064497;28;20060;-46
2022/03/09 02:32:02;;;;;;;9.65;5.97;;;7.10;94.10;;;;;;5054376;28;20041;-48
2022/03/09 02:34:30;;;;;;;13.20;6.43;;;7.10;94.20;;;;;;5040633;28;20040;-48
2022/03/09 02:36:58;;;;;;;13.20;6.57;;;7.00;94.10;;;;;;5058277;28;20045;-49
2022/03/09 02:39:26;;;;;;;11.70;6.03;;;7.00;94.20;;;;;;5063115;28;20128;-51
2022/03/09 02:41:54;;;;;;;12.95;6.05;;;6.90;94.20;;;;;;5062008;28;20057;-47
2022/03/09 02:44:21;;;;;;;9.77;6.40;;;7.00;94.20;;;;;;5041542;28;20478;-47
2022/03/09 02:46:49;;;;;;;11.20;6.07;;;6.90;94.00;;;;;;5044411;28;20071;-47
2022/03/09 02:49:16;;;;;;;8.90;5.72;;;6.90;93.90;;;;;;5068118;28;20078;-48
2022/03/09 02:51:44;;;;;;;11.30;6.80;;;6.90;93.90;;;;;;5062868;28;20511;-51
2022/03/09 02:54:12;;;;;;;12.27;5.95;;;6.90;93.80;;;;;;5054326;28;20053;-47
2022/03/09 02:56:40;;;;;;;11.60;5.57;;;6.90;93.60;;;;;;5053057;28;20563;-47
2022/03/09 02:59:10;;;;;;;10.13;5.75;;;6.90;93.40;;;;;;5034822;28;20065;-51
2022/03/09 03:01:38;;;;;;;8.82;6.38;;;6.90;93.40;;;;;;5053123;28;20040;-47
2022/03/09 03:04:06;;;;;;;10.48;6.38;;;6.90;93.20;;;;;;5053271;28;20471;-47
2022/03/09 03:06:34;;;;;;;9.50;5.40;;;6.90;93.00;;;;;;5053122;28;20069;-53
2022/03/09 03:09:02;;;;;;;9.85;6.10;;;6.90;93.00;;;;;;5053173;28;20877;-50
2022/03/09 03:11:30;;;;;;;10.23;6.50;;;6.90;92.80;;;;;;5054161;28;20041;-48
2022/03/09 03:13:57;;;;;;;8.70;4.82;;;6.90;92.80;;;;;;5054432;28;20045;-46
2022/03/09 03:16:24;;;;;;;8.10;5.10;;;6.80;92.60;;;;;;5054334;28;20041;-48
2022/03/09 03:18:52;;;;;;;11.40;5.45;;;6.80;91.80;;;;;;5054382;28;20051;-46
2022/03/09 03:21:19;;;;;;;10.35;5.65;;;6.80;91.50;;;;;;5036396;28;20041;-46
2022/03/09 03:23:48;;;;;;;9.18;5.18;;;6.80;91.50;;;;;;5054366;28;20036;-47
2022/03/09 03:26:15;;;;;;;10.98;5.95;;;6.90;91.50;;;;;;5054276;28;20052;-48
2022/03/09 03:28:43;;;;;;;8.68;5.43;;;6.90;91.50;;;;;;5054084;28;20053;-47
2022/03/09 03:31:10;;;;;;;7.43;5.07;;;6.90;91.60;;;;;;5054104;28;20083;-46
2022/03/09 03:33:38;;;;;;;8.43;6.13;;;6.90;91.80;;;;;;5054093;28;20383;-49
2022/03/09 03:36:05;;;;;;;8.88;5.38;;;6.80;91.80;;;;;;5053955;28;20127;-48
2022/03/09 03:38:33;;;;;;;8.18;5.13;;;6.90;92.00;;;;;;5054348;28;20041;-48
2022/03/09 03:41:00;;;;;;;6.70;4.38;;;6.80;91.50;;;;;;5054232;28;20398;-47
2022/03/09 03:43:28;;;;;;;8.45;5.57;;;6.80;91.10;;;;;;5054259;28;20041;-46
2022/03/09 03:45:55;;;;;;;8.05;5.18;;;6.90;91.40;;;;;;5054011;28;20048;-46
2022/03/09 03:48:23;;;;;;;9.55;5.13;;;6.90;91.60;;;;;;5054045;28;20136;-46
2022/03/09 03:50:50;;;;;;;10.00;5.05;;;6.90;91.70;;;;;;5054021;28;20083;-47
2022/03/09 03:53:18;;;;;;;10.88;6.53;;;6.90;91.70;;;;;;5053976;28;20107;-48
2022/03/09 03:55:48;;;;;;;9.75;5.53;;;6.90;91.70;;;;;;5053555;28;20041;-46
2022/03/09 03:58:15;;;;;;;14.07;5.63;;;6.90;91.60;;;;;;5053642;28;20132;-47
2022/03/09 04:00:43;;;;;;;9.02;5.13;;;6.70;90.70;;;;;;5016088;28;20080;-47
2022/03/09 04:03:10;;;;;;;10.60;5.18;;;6.80;90.60;;;;;;5033955;28;20092;-49
2022/03/09 04:05:38;;;;;;;12.77;5.55;;;6.70;90.40;;;;;;5033859;28;20088;-49
2022/03/09 04:08:05;;;;;;;9.50;5.10;;;6.70;90.60;;;;;;5033754;28;20060;-47
2022/03/09 04:10:33;;;;;;;8.27;5.03;;;6.70;90.40;;;;;;5033910;28;20041;-53
2022/03/09 04:13:04;;;;;;;12.77;5.63;;;6.70;90.00;;;;;;5033599;28;20041;-47
2022/03/09 04:15:32;;;;;;;8.13;5.30;;;6.70;89.70;;;;;;5032785;28;20485;-47
2022/03/09 04:17:59;;;;;;;10.48;4.80;;;6.70;89.60;;;;;;5033529;28;20045;-46
2022/03/09 04:20:27;;;;;;;7.90;4.63;;;6.70;89.10;;;;;;5033620;28;20116;-47
2022/03/09 04:22:54;;;;;;;7.70;6.25;;;6.70;89.40;;;;;;5032944;28;20076;-48
2022/03/09 04:25:22;;;;;;;10.38;5.45;;;6.70;89.20;;;;;;5032201;28;20474;-47
2022/03/09 04:27:49;;;;;;;11.88;6.30;;;6.70;89.50;;;;;;5033424;28;20051;-47
2022/03/09 04:30:17;;;;;;;8.20;5.43;;;6.70;90.10;;;;;;5033738;28;20042;-48
2022/03/09 04:32:44;;;;;;;9.05;5.65;;;6.70;90.40;;;;;;5033384;28;20080;-47
2022/03/09 04:35:14;;;;;;;8.52;5.95;;;6.70;90.60;;;;;;5033363;28;20045;-49
2022/03/09 04:37:42;;;;;;;9.55;6.28;;;6.70;90.80;;;;;;5033430;28;20137;-48
2022/03/09 04:40:10;;;;;;;8.93;4.85;;;6.70;91.00;;;;;;5032107;28;20046;-47
2022/03/09 04:42:37;;;;;;;11.35;5.18;;;6.70;90.90;;;;;;5032212;28;20136;-47
2022/03/09 04:45:05;;;;;;;10.70;6.25;;;6.70;90.70;;;;;;5033438;28;20192;-46
2022/03/09 04:47:33;;;;;;;12.38;6.55;;;6.70;90.40;;;;;;5033497;28;20037;-47
2022/03/09 04:50:01;;;;;;;8.60;5.38;;;6.60;90.30;;;;;;5033443;28;20054;-48
2022/03/09 04:52:28;;;;;;;9.82;6.03;;;6.60;90.60;;;;;;5033334;28;20038;-47
2022/03/09 04:54:56;;;;;;;9.32;5.43;;;6.60;90.70;;;;;;5033120;28;20057;-47
2022/03/09 04:57:24;;;;;;;9.93;6.57;;;6.60;90.90;;;;;;5033448;28;20046;-47
2022/03/09 04:59:51;;;;;;;9.38;4.90;;;6.60;91.10;;;;;;5031835;28;20495;-46
2022/03/09 05:02:19;;;;;;;10.75;6.50;;;6.70;91.30;;;;;;5033325;28;20469;-46
2022/03/09 05:04:47;;;;;;;15.30;6.75;;;6.70;91.30;;;;;;5033187;28;20049;-47
2022/03/09 05:07:15;;;;;;;10.13;6.40;;;6.60;91.20;;;;;;5033445;28;20037;-51
2022/03/09 05:09:42;;;;;;;11.73;5.97;;;6.70;91.40;;;;;;5032058;28;20492;-47
2022/03/09 05:12:10;;;;;;;7.65;5.65;;;6.60;91.40;;;;;;5033050;28;20488;-46
2022/03/09 05:14:37;;;;;;;9.55;5.78;;;6.60;91.40;;;;;;5033041;28;20437;-47
2022/03/09 05:17:05;;;;;;;10.68;7.00;;;6.60;91.10;;;;;;5033033;28;20104;-47
2022/03/09 05:19:34;;;;;;;11.20;6.07;;;6.70;90.90;;;;;;5032943;28;20038;-49
2022/03/09 05:22:03;;;;;;;15.35;5.10;;;6.70;90.90;;;;;;5033061;28;20042;-49
2022/03/09 05:24:39;;;;;;;11.85;7.07;;;6.70;91.00;;;;;;5033001;28;20045;-50
2022/03/09 05:27:06;;;;;;;10.18;7.07;;;6.80;91.00;;;;;;5033030;28;20129;-48
2022/03/09 05:29:34;;;;;;;11.13;5.93;;;6.70;91.10;;;;;;5042222;28;20400;-48
2022/03/09 05:32:01;;;;;;;8.77;4.90;;;6.80;91.00;;;;;;5044110;28;20128;-48
2022/03/09 05:34:29;;;;;;;8.32;5.10;;;6.90;90.80;;;;;;5051571;28;20048;-48
2022/03/09 05:36:56;;;;;;;7.63;5.53;;;7.00;90.80;;;;;;5055873;28;20041;-50
2022/03/09 05:39:24;;;;;;;13.32;5.82;;;7.10;90.60;;;;;;5055031;28;20052;-49
2022/03/09 05:41:51;;;;;;;9.88;5.93;;;7.30;90.60;;;;;;5056498;28;20044;-52
2022/03/09 05:44:19;;;;;;;10.45;5.53;;;7.40;90.30;;;;;;5056178;28;20051;-49
2022/03/09 05:46:47;;;;;;;10.45;5.63;;;7.40;90.20;;;;;;5056166;28;20036;-47
2022/03/09 05:49:14;;;;;;;10.30;5.90;;;7.50;90.40;;;;;;5056128;28;20120;-51
2022/03/09 05:51:43;;;;;;;9.02;4.63;;;7.60;90.00;;;;;;5055906;28;20033;-50
2022/03/09 05:54:11;;;;;;;10.77;6.45;;;7.70;88.70;;;;;;5056032;28;20041;-47
2022/03/09 05:56:39;;;;;;;11.07;5.80;;;7.80;87.60;;;;;;5055910;28;20044;-47
2022/03/09 05:59:06;;;;;;;10.07;4.93;;;7.90;86.60;;;;;;5062638;28;20513;-47
2022/03/09 06:01:33;;;;;;;9.23;5.60;;;8.00;86.70;;;;;;5075152;28;20041;-47
2022/03/09 06:04:02;;;;;;;12.55;5.97;;;8.20;86.80;;;;;;5041467;28;20123;-51
2022/03/09 06:06:30;;;;;;;8.90;5.00;;;8.20;86.60;;;;;;5067521;28;20476;-48
2022/03/09 06:08:57;;;;;;;7.03;4.50;;;8.30;85.70;;;;;;5055882;28;20499;-47
2022/03/09 06:11:25;;;;;;;7.40;4.93;;;8.50;85.00;;;;;;5055604;28;20037;-47
2022/03/09 06:13:53;;;;;;;7.65;4.50;;;8.60;84.40;;;;;;5055702;28;20033;-52
2022/03/09 06:16:21;;;;;;;9.50;5.40;;;8.70;83.70;;;;;;5057774;28;20044;-49
2022/03/09 06:18:51;;;;;;;11.60;5.38;;;8.90;83.10;;;;;;5030770;28;20103;-48
2022/03/09 06:21:18;;;;;;;9.73;5.78;;;9.00;83.00;;;;;;5064495;28;20044;-46
2022/03/09 06:23:46;;;;;;;7.93;5.18;;;9.20;82.90;;;;;;5055340;28;20041;-48
2022/03/09 06:26:13;;;;;;;10.18;4.88;;;9.50;82.50;;;;;;5037847;28;20053;-47
2022/03/09 06:28:41;;;;;;;7.05;5.20;;;9.60;82.50;;;;;;5021506;28;20408;-48
2022/03/09 06:31:09;;;;;;;7.60;4.63;;;9.70;81.80;;;;;;5037717;28;20053;-47
2022/03/09 06:33:36;;;;;;;7.63;4.65;;;9.90;81.60;;;;;;5037516;28;20094;-47
2022/03/09 06:36:06;;;;;;;6.20;4.43;;;9.90;81.20;;;;;;5055389;28;20080;-50
2022/03/09 06:38:34;;;;;;;9.20;5.25;;;10.10;81.50;;;;;;5039191;28;20041;-48
2022/03/09 06:41:01;;;;;;;7.85;5.68;;;10.10;80.90;;;;;;5063391;28;20127;-47
2022/03/09 06:43:29;;;;;;;8.75;4.70;;;10.30;80.10;;;;;;5071798;28;20044;-47
2022/03/09 06:45:58;;;;;;;15.65;6.15;;;10.30;79.50;;;;;;5059745;28;20033;-49
2022/03/09 06:48:26;;;;;;;7.70;5.18;;;10.50;79.20;;;;;;5072512;28;20033;-47
2022/03/09 06:50:53;;;;;;;6.95;5.20;;;10.70;79.20;;;;;;5081264;28;20041;-51
2022/03/09 06:53:21;;;;;;;8.55;5.38;;;10.80;78.20;;;;;;5076291;28;20044;-52
2022/03/09 06:55:48;;;;;;;7.50;5.05;;;11.00;77.90;;;;;;5068597;28;20036;-47
2022/03/09 06:58:16;;;;;;;8.18;5.30;;;11.10;77.40;;;;;;5064753;28;20421;-48
2022/03/09 07:00:44;;;;;;;6.22;4.15;;;11.30;77.00;;;;;;5079067;28;20051;-47
2022/03/09 07:03:11;;;;;;;7.32;4.95;;;11.40;76.50;;;;;;5079348;28;20054;-47
2022/03/09 07:05:39;;;;;;;7.90;5.07;;;11.50;75.50;;;;;;5083181;28;20078;-49
2022/03/09 07:08:07;;;;;;;9.80;5.55;;;11.50;75.50;;;;;;5070464;28;20419;-50
2022/03/09 07:10:36;;;;;;;7.07;4.10;;;11.60;75.90;;;;;;5075180;28;20043;-50
2022/03/09 07:13:03;;;;;;;8.65;4.93;;;11.60;75.90;;;;;;5071346;28;20037;-54
2022/03/09 07:15:31;;;;;;;18.00;4.30;;;11.70;75.40;;;;;;5059910;28;20140;-48
2022/03/09 07:17:59;;;;;;;9.05;4.30;;;11.70;75.10;;;;;;5062215;28;20438;-54
2022/03/09 07:20:27;;;;;;;5.88;4.20;;;11.80;74.90;;;;;;5086252;28;20040;-47
2022/03/09 07:22:55;;;;;;;8.13;4.20;;;11.80;74.40;;;;;;5094603;28;20059;-49
2022/03/09 07:25:22;;;;;;;8.27;4.35;;;11.70;74.00;;;;;;5084475;28;20106;-47
2022/03/09 07:27:52;;;;;;;5.85;3.90;;;11.80;75.00;;;;;;5065551;28;20529;-49
2022/03/09 07:30:19;;;;;;;8.43;4.90;;;11.90;75.10;;;;;;5052840;28;20033;-47
2022/03/09 07:32:47;;;;;;;9.50;5.40;;;12.00;75.80;;;;;;5019649;28;20045;-47
2022/03/09 07:35:20;;;;;;;8.65;4.78;;;11.90;75.20;;;;;;5054087;28;20511;-47
2022/03/09 07:37:50;;;;;;;10.48;5.28;;;12.00;75.80;;;;;;5036623;28;20041;-46
2022/03/09 07:40:19;;;;;;;8.23;4.72;;;11.90;74.20;;;;;;5052720;28;20053;-48
2022/03/09 07:42:47;;;;;;;6.45;4.07;;;11.90;74.90;;;;;;5053318;28;20190;-49
2022/03/09 07:45:20;;;;;;;10.13;4.13;;;11.90;73.70;;;;;;5053299;28;20403;-47
2022/03/09 07:47:47;;;;;;;7.22;4.63;;;11.60;74.60;;;;;;5054030;28;20083;-46
2022/03/09 07:50:15;;;;;;;6.93;4.43;;;11.70;75.10;;;;;;5053931;28;20041;-48
2022/03/09 07:52:43;;;;;;;7.45;4.50;;;11.80;76.00;;;;;;5019762;28;20098;-47
2022/03/09 07:55:10;;;;;;;7.25;4.78;;;11.80;75.20;;;;;;5053597;28;20052;-47
2022/03/09 07:57:38;;;;;;;7.25;4.18;;;11.80;75.40;;;;;;5053596;28;20044;-47
2022/03/09 08:00:07;;;;;;;8.07;4.00;;;11.90;74.80;;;;;;5053702;28;20060;-48
2022/03/09 08:02:43;;;;;;;6.95;4.45;;;11.80;72.60;;;;;;5053866;28;20106;-47
2022/03/09 08:05:12;;;;;;;5.05;3.30;;;11.90;72.40;;;;;;5036103;28;20415;-47
2022/03/09 08:07:39;;;;;;;8.40;3.65;;;12.00;71.80;;;;;;5053482;28;20052;-47
2022/03/09 08:10:09;;;;;;;7.95;4.07;;;12.10;72.60;;;;;;5053496;28;20407;-47
2022/03/09 08:12:37;;;;;;;10.35;4.60;;;12.10;72.80;;;;;;5036181;28;20468;-48
2022/03/09 08:15:05;;;;;;;7.78;5.10;;;12.20;72.60;;;;;;5053595;28;20063;-47
2022/03/09 08:17:36;;;;;;;6.43;3.95;;;11.90;73.20;;;;;;5053486;28;20076;-47
2022/03/09 08:20:05;;;;;;;9.95;5.50;;;12.10;75.10;;;;;;5053476;28;20136;-46
2022/03/09 08:22:32;;;;;;;10.15;4.18;;;11.90;73.90;;;;;;5053489;28;20098;-48
2022/03/09 08:25:00;;;;;;;5.63;3.83;;;12.10;74.90;;;;;;5053561;28;20052;-47
2022/03/09 08:27:27;;;;;;;7.10;4.72;;;11.90;75.60;;;;;;5053282;28;20049;-47
2022/03/09 08:29:55;;;;;;;6.32;3.92;;;12.00;74.70;;;;;;5053548;28;20044;-47
2022/03/09 08:32:24;;;;;;;9.95;5.00;;;11.90;75.90;;;;;;5053346;28;20155;-49
2022/03/09 08:34:54;;;;;;;8.25;4.40;;;12.00;75.70;;;;;;5053264;28;20047;-46
2022/03/09 08:37:21;;;;;;;5.97;4.93;;;12.20;75.70;;;;;;5053701;28;20045;-46
2022/03/09 08:39:49;;;;;;;7.80;5.07;;;12.10;75.90;;;;;;5053556;28;20076;-46
2022/03/09 08:42:18;;;;;;;8.68;4.43;;;12.00;74.30;;;;;;5053326;28;20132;-47
2022/03/09 08:44:46;;;;;;;9.02;4.43;;;12.20;74.00;;;;;;5053476;28;20041;-47
2022/03/09 08:47:14;;;;;;;5.97;4.20;;;12.30;72.60;;;;;;5053319;28;20399;-47
2022/03/09 08:49:42;;;;;;;7.35;4.50;;;12.30;72.90;;;;;;5053183;28;20045;-48
2022/03/09 08:52:11;;;;;;;5.70;4.07;;;12.20;74.00;;;;;;5035807;28;20565;-47
2022/03/09 08:54:41;;;;;;;5.93;3.58;;;12.20;73.00;;;;;;5053310;28;20049;-48
2022/03/09 08:57:09;;;;;;;6.35;4.13;;;12.20;73.60;;;;;;5053204;28;20499;-47
2022/03/09 08:59:37;;;;;;;6.75;5.07;;;12.20;73.30;;;;;;5035265;28;20053;-49
2022/03/09 09:02:05;;;;;;;8.40;5.28;;;12.20;72.80;;;;;;5053004;28;20076;-47
2022/03/09 09:04:33;;;;;;;7.35;4.75;;;12.50;72.30;;;;;;5052884;28;20045;-50
2022/03/09 09:07:01;;;;;;;5.78;3.63;;;12.20;70.40;;;;;;5053338;28;20049;-48
2022/03/09 09:09:28;;;;;;;5.88;3.50;;;12.20;71.60;;;;;;5036483;28;20049;-46
2022/03/09 09:11:59;;;;;;;9.13;3.70;;;12.30;72.60;;;;;;5056976;28;20033;-47
2022/03/09 09:14:27;;;;;;;8.32;4.70;;;12.30;70.60;;;;;;5056837;28;20037;-49
2022/03/09 09:16:55;;;;;;;7.82;4.13;;;12.40;72.50;;;;;;5056493;28;20045;-48
2022/03/09 09:19:23;;;;;;;5.72;3.40;;;12.40;73.40;;;;;;5056830;28;20369;-47
2022/03/09 09:21:51;;;;;;;5.82;3.45;;;12.30;72.90;;;;;;5056604;28;20127;-47
2022/03/09 09:24:18;;;;;;;5.25;3.40;;;12.30;70.70;;;;;;5056821;28;20045;-47
2022/03/09 09:26:46;;;;;;;5.75;3.45;;;12.40;72.10;;;;;;5038881;28;20041;-48
2022/03/09 09:29:15;;;;;;;5.65;3.45;;;12.20;70.10;;;;;;5056700;28;20044;-50
2022/03/09 09:31:45;;;;;;;8.70;4.60;;;12.10;69.60;;;;;;5038622;28;20051;-47
2022/03/09 09:34:13;;;;;;;7.20;4.10;;;12.30;70.30;;;;;;5038919;28;20041;-47
2022/03/09 09:36:44;;;;;;;9.32;4.57;;;12.50;71.50;;;;;;5056301;28;20037;-49
2022/03/09 09:39:14;;;;;;;7.38;4.90;;;12.50;70.10;;;;;;5056578;28;20072;-47
2022/03/09 09:41:44;;;;;;;7.38;4.07;;;12.50;70.20;;;;;;5056205;28;20043;-47
2022/03/09 09:44:12;;;;;;;6.18;3.45;;;12.40;70.60;;;;;;5056309;28;20045;-48
2022/03/09 09:46:42;;;;;;;5.78;3.67;;;12.40;69.70;;;;;;5056405;28;20037;-47
2022/03/09 09:49:12;;;;;;;8.40;4.03;;;12.60;71.00;;;;;;5055418;28;20056;-52
2022/03/09 09:51:44;;;;;;;8.50;3.40;;;12.50;69.50;;;;;;5073007;28;20383;-47
2022/03/09 09:54:13;;;;;;;5.85;3.25;;;12.30;68.00;;;;;;5077649;28;20043;-47
2022/03/09 09:56:42;;;;;;;5.25;3.28;;;12.40;69.80;;;;;;5078714;28;20400;-46
2022/03/09 09:59:10;;;;;;;5.95;3.40;;;12.30;71.40;;;;;;5085203;28;20075;-47
2022/03/09 10:01:40;;;;;;;6.88;4.28;;;12.40;72.10;;;;;;5084306;28;20037;-47
2022/03/09 10:04:08;;;;;;;6.90;3.58;;;12.20;70.80;;;;;;5074018;28;20044;-56
2022/03/09 10:06:39;;;;;;;5.95;3.55;;;12.30;71.20;;;;;;5088092;28;20101;-55
2022/03/09 10:09:09;;;;;;;5.57;3.45;;;12.30;71.70;;;;;;5078127;28;20063;-46
2022/03/09 10:11:53;;;;;;;6.55;3.70;;;12.40;71.30;;;;;;5078433;28;20123;-53
2022/03/09 10:14:39;;;;;;;6.63;3.85;;;12.20;71.10;;;;;;5095138;28;20044;-46
2022/03/09 10:17:14;;;;;;;7.05;3.70;;;12.00;71.80;;;;;;5096027;28;20478;-47
2022/03/09 10:19:45;;;;;;;7.03;3.90;;;12.10;73.00;;;;;;5095864;28;20044;-46
2022/03/09 10:22:25;;;;;;;4.72;3.20;;;12.20;71.80;;;;;;5095343;28;20064;-48
2022/03/09 10:25:09;;;;;;;6.15;3.72;;;12.30;71.10;;;;;;5096010;28;20076;-47
2022/03/09 10:27:41;;;;;;;12.40;8.45;;;12.40;72.50;;;;;;5095774;28;20406;-48
2022/03/09 10:30:13;;;;;;;6.55;3.70;;;12.60;73.30;;;;;;5095727;28;20051;-47
2022/03/09 10:33:02;;;;;;;4.72;3.55;;;12.70;72.80;;;;;;5095851;28;20425;-50
2022/03/09 10:35:30;;;;;;;4.80;3.20;;;12.80;71.30;;;;;;5095828;28;20062;-46
2022/03/09 10:38:20;;;;;;;7.82;3.70;;;12.90;71.80;;;;;;5077503;28;20040;-47
2022/03/09 10:40:51;;;;;;;6.20;2.78;;;12.90;69.10;;;;;;5095169;28;20032;-47
2022/03/09 10:43:28;;;;;;;6.47;2.97;;;12.90;69.40;;;;;;5095555;28;20130;-47
2022/03/09 10:45:58;;;;;;;5.47;2.95;;;12.80;69.80;;;;;;5095474;28;20064;-49
2022/03/09 10:48:27;;;;;;;6.60;3.35;;;12.90;68.70;;;;;;5095526;28;20074;-51
2022/03/09 10:50:55;;;;;;;8.63;3.85;;;12.90;68.40;;;;;;5095124;28;20395;-47
2022/03/09 10:53:23;;;;;;;5.53;3.40;;;12.90;68.60;;;;;;5077345;28;20105;-47
2022/03/09 10:55:51;;;;;;;5.85;3.17;;;12.80;69.90;;;;;;5095440;28;20043;-46
2022/03/09 10:58:21;;;;;;;6.80;4.32;;;12.60;70.30;;;;;;5095376;28;20048;-48
2022/03/09 11:00:52;;;;;;;6.32;3.22;;;12.60;71.10;;;;;;5095327;28;20083;-46
2022/03/09 11:03:24;;;;;;;5.57;3.45;;;12.60;71.60;;;;;;5095020;28;20131;-51
2022/03/09 11:06:00;;;;;;;5.15;3.42;;;12.30;71.10;;;;;;5095196;28;20093;-48
2022/03/09 11:08:34;;;;;;;5.32;2.95;;;12.40;68.20;;;;;;5076801;28;20494;-52
2022/03/09 11:11:05;;;;;;;6.43;3.95;;;12.30;66.00;;;;;;5095290;28;20051;-46
2022/03/09 11:13:36;;;;;;;8.18;3.50;;;12.30;66.90;;;;;;5077169;28;20040;-46
2022/03/09 11:16:04;;;;;;;11.07;6.10;;;12.40;65.50;;;;;;5094759;28;20189;-49
2022/03/09 11:18:33;;;;;;;9.93;5.82;;;12.40;66.90;;;;;;5076737;28;20062;-48
2022/03/09 11:21:06;;;;;;;7.55;4.53;;;12.40;67.10;;;;;;5095184;28;20539;-47
2022/03/09 11:23:38;;;;;;;5.05;3.47;;;12.30;67.00;;;;;;5094754;28;20065;-46
2022/03/09 11:26:09;;;;;;;4.70;3.10;;;12.20;66.60;;;;;;5060134;28;20429;-46
2022/03/09 11:28:39;;;;;;;4.18;2.90;;;12.10;67.30;;;;;;5094480;28;20093;-46
2022/03/09 11:31:09;;;;;;;7.57;3.85;;;11.90;66.10;;;;;;5094254;28;20040;-49
2022/03/09 11:33:42;;;;;;;8.70;4.78;;;11.80;65.10;;;;;;5094521;28;20043;-46
2022/03/09 11:36:29;;;;;;;6.28;3.85;;;12.00;67.30;;;;;;5076391;28;20048;-46
2022/03/09 11:39:07;;;;;;;5.43;3.50;;;12.10;68.00;;;;;;5094228;28;20094;-46
2022/03/09 11:41:39;;;;;;;9.68;4.78;;;12.00;66.50;;;;;;5094478;28;20285;-47
2022/03/09 11:44:21;;;;;;;8.15;3.88;;;12.10;67.10;;;;;;5094440;28;20036;-46
2022/03/09 11:46:58;;;;;;;5.47;3.25;;;12.20;65.60;;;;;;5094941;28;20051;-47
2022/03/09 11:49:36;;;;;;;5.05;3.70;;;12.10;65.80;;;;;;5076553;28;20421;-46
2022/03/09 11:52:12;;;;;;;6.45;3.47;;;12.10;66.70;;;;;;5094193;28;20069;-48
2022/03/09 11:54:41;;;;;;;6.90;3.83;;;12.00;67.50;;;;;;5094285;28;20042;-48
2022/03/09 11:57:10;;;;;;;4.93;2.97;;;12.00;68.00;;;;;;5094104;28;20040;-46
2022/03/09 11:59:41;;;;;;;5.32;3.10;;;12.00;69.20;;;;;;5093766;28;20507;-47
2022/03/09 12:02:10;;;;;;;5.13;3.00;;;12.20;69.00;;;;;;5094042;28;20135;-47
2022/03/09 12:04:50;;;;;;;4.78;2.95;;;12.20;66.70;;;;;;5093877;28;20406;-49
2022/03/09 12:07:34;;;;;;;4.97;3.25;;;12.30;67.60;;;;;;5093192;28;20139;-49
2022/03/09 12:10:05;;;;;;;4.38;2.90;;;12.30;67.30;;;;;;5094114;28;20040;-47
2022/03/09 12:12:36;;;;;;;6.65;4.00;;;12.40;67.50;;;;;;5094032;28;20051;-46
2022/03/09 12:15:09;;;;;;;14.73;4.13;;;12.50;68.00;;;;;;5094026;28;20044;-48
2022/03/09 12:17:47;;;;;;;7.22;3.30;;;12.50;68.90;;;;;;5093895;28;20044;-48
2022/03/09 12:20:31;;;;;;;4.60;3.35;;;12.30;68.20;;;;;;5093941;28;20090;-46
2022/03/09 12:22:59;;;;;;;5.30;3.15;;;12.00;67.70;;;;;;5093797;28;20037;-47
2022/03/09 12:25:47;;;;;;;6.60;3.30;;;12.00;67.50;;;;;;5093537;28;20085;-47
2022/03/09 12:28:24;;;;;;;5.97;3.83;;;11.90;67.30;;;;;;5094313;28;20135;-46
2022/03/09 12:31:03;;;;;;;5.50;4.22;;;11.90;67.10;;;;;;5093717;28;20386;-46
2022/03/09 12:33:31;;;;;;;4.93;3.45;;;12.00;68.10;;;;;;5093722;28;20085;-49
2022/03/09 12:36:12;;;;;;;9.82;5.45;;;11.90;66.80;;;;;;5093499;28;20036;-46
2022/03/09 12:38:56;;;;;;;6.60;4.68;;;12.00;66.10;;;;;;5093793;28;20458;-46
2022/03/09 12:41:30;;;;;;;8.00;5.10;;;12.00;68.10;;;;;;5093617;28;20032;-47
2022/03/09 12:44:00;;;;;;;7.70;4.32;;;11.70;66.90;;;;;;5093854;28;20052;-46
2022/03/09 12:46:29;;;;;;;7.68;4.82;;;11.70;66.40;;;;;;5097320;28;20044;-46
2022/03/09 12:49:07;;;;;;;8.07;4.38;;;11.70;66.90;;;;;;5097610;28;20457;-46
2022/03/09 12:51:37;;;;;;;5.93;3.95;;;11.90;67.70;;;;;;5079344;28;20043;-48
2022/03/09 12:54:51;;;;;;;5.35;3.63;;;11.90;67.80;;;;;;5097575;28;20503;-46
2022/03/09 12:57:28;;;;;;;4.90;3.50;;;11.70;66.80;;;;;;5089661;28;20086;-46
2022/03/09 13:00:07;;;;;;;7.78;3.88;;;11.60;67.20;;;;;;5097218;28;20406;-47
2022/03/09 13:02:52;;;;;;;6.15;3.60;;;11.60;68.90;;;;;;5097463;28;20044;-46